createdAt,value
2023-01-06T00:02:06.159Z,101322.67
2023-01-06T00:07:28.663Z,101337.88
2023-01-06T00:12:52.044Z,101348.89
2023-01-06T00:18:14.436Z,101358.28
2023-01-06T00:23:36.779Z,101355.83
2023-01-06T00:29:01.943Z,101370.11
2023-01-06T00:34:24.204Z,101367.69
2023-01-06T00:39:46.794Z,101378.38
2023-01-06T00:45:09.526Z,101385.63
2023-01-06T00:50:31.835Z,101398.97
2023-01-06T00:55:54.182Z,101411.44
2023-01-06T01:01:18.362Z,101420.88
2023-01-06T01:06:41.699Z,101432.23
2023-01-06T01:12:12.260Z,101451.53
2023-01-06T01:17:41.573Z,101473.48
2023-01-06T01:23:04.012Z,101479.12
2023-01-06T01:28:26.766Z,101481.19
2023-01-06T01:33:49.950Z,101479.06
2023-01-06T01:39:12.223Z,101475.26
2023-01-06T01:45:08.328Z,101473.29
2023-01-06T01:50:53.969Z,101473.17
2023-01-06T01:56:19.477Z,101481.06
2023-01-06T02:01:42.445Z,101475.62
2023-01-06T02:07:06.789Z,101471.05
2023-01-06T02:12:29.631Z,101477.20
2023-01-06T02:18:11.855Z,101475.47
2023-01-06T02:23:58.314Z,101477.20
2023-01-06T02:29:57.438Z,101471.01
2023-01-06T02:41:38.461Z,101475.39
2023-01-06T02:47:22.589Z,101490.30
2023-01-06T02:52:55.449Z,101501.03
2023-01-06T02:59:06.621Z,101499.06
2023-01-06T03:04:33.337Z,101512.48
2023-01-06T03:09:57.975Z,101507.98
2023-01-06T03:15:21.400Z,101509.75
2023-01-06T03:20:43.806Z,101517.69
2023-01-06T03:26:05.981Z,101530.03
2023-01-06T03:31:49.723Z,101527.43
2023-01-06T03:37:22.656Z,101536.19
2023-01-06T03:43:12.557Z,101545.94
2023-01-06T03:48:45.136Z,101545.94
2023-01-06T04:00:08.959Z,101538.61
2023-01-06T04:05:40.398Z,101533.51
2023-01-06T04:11:02.829Z,101527.20
2023-01-06T04:16:25.369Z,101525.34
2023-01-06T04:21:49.351Z,101516.74
2023-01-06T04:27:11.536Z,101520.30
2023-01-06T04:32:33.995Z,101532.67
2023-01-06T04:37:56.800Z,101538.83
2023-01-06T04:43:20.176Z,101539.74
2023-01-06T04:48:42.584Z,101535.32
2023-01-06T04:54:04.872Z,101536.27
2023-01-06T04:59:27.298Z,101536.30
2023-01-06T05:04:50.141Z,101521.23
2023-01-06T05:10:13.091Z,101518.52
2023-01-06T05:15:35.456Z,101521.27
2023-01-06T05:20:59.703Z,101522.26
2023-01-06T05:26:25.270Z,101523.02
2023-01-06T05:31:47.696Z,101524.75
2023-01-06T05:37:10.323Z,101528.48
2023-01-06T05:42:34.283Z,101538.04
2023-01-06T05:47:58.462Z,101533.84
2023-01-06T05:53:20.849Z,101528.71
2023-01-06T05:58:43.652Z,101541.16
2023-01-06T06:04:06.846Z,101533.85
2023-01-06T06:09:29.142Z,101531.13
2023-01-06T06:14:51.408Z,101533.81
2023-01-06T06:20:14.013Z,101560.31
2023-01-06T06:25:36.501Z,101568.28
2023-01-06T06:30:59.197Z,101556.80
2023-01-06T06:36:23.522Z,101568.24
2023-01-06T06:41:45.800Z,101566.47
2023-01-06T06:47:08.197Z,101569.98
2023-01-06T06:52:30.368Z,101577.04
2023-01-06T06:57:53.060Z,101577.08
2023-01-06T07:03:15.718Z,101578.78
2023-01-06T07:08:38.452Z,101570.52
2023-01-06T07:14:00.642Z,101561.61
2023-01-06T07:19:22.922Z,101554.62
2023-01-06T07:24:45.237Z,101540.61
2023-01-06T07:30:08.224Z,101548.66
2023-01-06T07:35:31.604Z,101554.81
2023-01-06T07:40:54.664Z,101567.16
2023-01-06T07:46:17.313Z,101576.75
2023-01-06T07:51:39.883Z,101573.95
2023-01-06T07:57:02.837Z,101579.13
2023-01-06T08:02:25.394Z,101576.37
2023-01-06T08:07:49.607Z,101563.04
2023-01-06T08:13:12.008Z,101565.72
2023-01-06T08:18:35.408Z,101558.70
2023-01-06T08:23:57.629Z,101555.22
2023-01-06T08:29:20.047Z,101553.45
2023-01-06T08:34:42.408Z,101552.50
2023-01-06T08:40:05.146Z,101555.89
2023-01-06T08:45:27.594Z,101552.34
2023-01-06T08:50:53.719Z,101559.29
2023-01-06T08:56:33.312Z,101568.13
2023-01-06T09:01:56.838Z,101554.66
2023-01-06T09:07:19.345Z,101551.23
2023-01-06T09:12:42.285Z,101567.14
2023-01-06T09:18:04.586Z,101561.97
2023-01-06T09:23:27.067Z,101544.33
2023-01-06T09:28:51.435Z,101523.88
2023-01-06T09:34:13.630Z,101525.52
2023-01-06T09:39:37.509Z,101538.80
2023-01-06T09:45:13.840Z,101526.27
2023-01-06T09:50:55.473Z,101523.66
2023-01-06T09:56:22.385Z,101531.64
2023-01-06T10:01:49.608Z,101507.78
2023-01-06T10:07:44.275Z,101505.06
2023-01-06T10:18:54.577Z,101481.70
2023-01-06T10:24:33.370Z,101471.08
2023-01-06T10:29:57.642Z,101452.78
2023-01-06T10:35:22.353Z,101449.31
2023-01-06T10:40:46.133Z,101442.38
2023-01-06T10:46:09.023Z,101434.48
2023-01-06T10:51:57.532Z,101422.03
2023-01-06T10:57:32.326Z,101420.25
2023-01-06T11:03:09.212Z,101403.33
2023-01-06T11:08:24.342Z,101396.12
2023-01-06T11:13:51.676Z,101395.82
2023-01-06T11:19:18.733Z,101392.36
2023-01-06T11:24:42.425Z,101389.95
2023-01-06T11:30:04.660Z,101399.63
2023-01-06T11:35:37.438Z,101392.45
2023-01-06T11:41:05.161Z,101365.94
2023-01-06T11:46:30.985Z,101351.80
2023-01-06T11:52:09.454Z,101338.47
2023-01-06T11:57:42.973Z,101312.00
2023-01-06T12:03:28.182Z,101291.43
2023-01-06T12:09:13.002Z,101284.45
2023-01-06T12:14:40.021Z,101279.95
2023-01-06T12:20:34.185Z,101270.83
2023-01-06T12:26:00.889Z,101272.02
2023-01-06T12:31:39.709Z,101271.15
2023-01-06T12:37:32.580Z,101258.03
2023-01-06T12:43:23.602Z,101251.12
2023-01-06T12:49:08.564Z,101246.63
2023-01-06T12:54:43.183Z,101240.68
2023-01-06T13:00:37.276Z,101237.78
2023-01-06T13:06:21.194Z,101231.27
2023-01-06T13:11:57.041Z,101223.06
2023-01-06T13:17:35.759Z,101211.38
2023-01-06T13:23:39.288Z,101201.18
2023-01-06T13:29:33.923Z,101181.14
2023-01-06T13:35:32.039Z,101172.52
2023-01-06T13:40:56.716Z,101170.84
2023-01-06T13:46:22.743Z,101161.23
2023-01-06T13:51:48.752Z,101136.55
2023-01-06T13:57:32.544Z,101126.03
2023-01-06T14:03:02.651Z,101113.78
2023-01-06T14:08:30.934Z,101113.84
2023-01-06T14:13:58.657Z,101113.84
2023-01-06T14:19:34.134Z,101127.04
2023-01-06T14:25:12.351Z,101105.00
2023-01-06T14:30:46.677Z,101099.72
2023-01-06T14:36:21.479Z,101094.44
2023-01-06T14:42:07.920Z,101088.34
2023-01-06T14:47:37.237Z,101083.05
2023-01-06T14:53:22.546Z,101073.41
2023-01-06T14:58:52.735Z,101062.75
2023-01-06T15:04:25.706Z,101053.95
2023-01-06T15:09:48.422Z,101044.25
2023-01-06T15:15:14.432Z,101053.03
2023-01-06T15:20:40.175Z,101033.55
2023-01-06T15:26:03.912Z,101027.25
2023-01-06T15:31:29.419Z,101031.61
2023-01-06T15:36:54.543Z,101023.64
2023-01-06T15:42:18.953Z,101027.00
2023-01-06T15:47:49.943Z,101030.56
2023-01-06T15:53:24.407Z,101018.20
2023-01-06T15:58:54.263Z,100997.93
2023-01-06T16:04:19.897Z,100996.16
2023-01-06T16:09:45.691Z,100997.83
2023-01-06T16:15:09.594Z,100990.67
2023-01-06T16:20:42.151Z,100976.53
2023-01-06T16:26:09.889Z,100972.02
2023-01-06T16:31:45.293Z,100964.90
2023-01-06T16:37:10.469Z,100957.73
2023-01-06T16:42:41.645Z,100961.17
2023-01-06T16:48:04.968Z,100954.06
2023-01-06T16:53:31.682Z,100961.86
2023-01-06T16:58:54.390Z,100966.13
2023-01-06T17:04:18.143Z,100962.41
2023-01-06T17:09:41.484Z,100955.18
2023-01-06T17:15:03.706Z,100943.56
2023-01-06T17:20:30.701Z,100951.39
2023-01-06T17:25:52.899Z,100935.29
2023-01-06T17:31:25.469Z,100921.95
2023-01-06T17:36:55.132Z,100932.48
2023-01-06T17:42:36.373Z,100937.53
2023-01-06T17:48:06.774Z,100939.94
2023-01-06T17:54:05.962Z,100941.42
2023-01-06T17:59:30.651Z,100940.25
2023-01-06T18:04:53.254Z,100949.05
2023-01-06T18:10:19.406Z,100962.96
2023-01-06T18:15:56.732Z,100960.95
2023-01-06T18:21:45.891Z,100944.02
2023-01-06T18:27:12.953Z,100942.84
2023-01-06T18:32:44.703Z,100946.09
2023-01-06T18:38:09.234Z,100948.77
2023-01-06T18:43:40.987Z,100949.48
2023-01-06T18:49:05.393Z,100966.92
2023-01-06T18:54:34.785Z,100958.03
2023-01-06T18:59:57.212Z,100963.39
2023-01-06T19:05:23.877Z,100977.52
2023-01-06T19:10:47.151Z,100983.73
2023-01-06T19:16:13.105Z,100990.67
2023-01-06T19:21:36.131Z,100978.78
2023-01-06T19:27:01.653Z,100975.47
2023-01-06T19:32:28.900Z,100979.16
2023-01-06T19:37:51.395Z,100981.87
2023-01-06T19:43:27.642Z,100981.95
2023-01-06T19:48:53.152Z,100985.58
2023-01-06T19:54:20.953Z,101001.58
2023-01-06T19:59:48.339Z,101009.96
2023-01-06T20:05:11.204Z,101007.25
2023-01-06T20:10:33.956Z,101016.67
2023-01-06T20:15:56.358Z,101008.72
2023-01-06T20:21:19.208Z,101008.34
2023-01-06T20:26:41.765Z,101007.70
2023-01-06T20:32:04.257Z,101016.42
2023-01-06T20:37:26.888Z,101018.21
2023-01-06T20:42:49.628Z,101023.59
2023-01-06T20:48:12.440Z,101016.98
2023-01-06T20:53:35.440Z,101024.73
2023-01-06T20:58:57.948Z,101033.61
2023-01-06T21:04:20.358Z,101047.39
2023-01-06T21:09:42.663Z,101046.13
2023-01-06T21:15:04.886Z,101047.58
2023-01-06T21:20:28.253Z,101060.63
2023-01-06T21:25:50.530Z,101064.77
2023-01-06T21:31:12.953Z,101068.00
2023-01-06T21:36:35.251Z,101072.22
2023-01-06T21:42:15.017Z,101072.03
2023-01-06T21:47:37.287Z,101074.20
2023-01-06T21:52:59.547Z,101082.08
2023-01-06T21:58:23.637Z,101096.30
2023-01-06T22:03:45.916Z,101106.92
2023-01-06T22:09:11.789Z,101102.25
2023-01-06T22:14:36.136Z,101122.55
2023-01-06T22:19:59.877Z,101136.69
2023-01-06T22:25:23.354Z,101143.73
2023-01-06T22:30:46.106Z,101149.01
2023-01-06T22:36:10.131Z,101153.39
2023-01-06T22:41:32.435Z,101171.84
2023-01-06T22:46:54.641Z,101173.42
2023-01-06T22:52:16.956Z,101169.64
2023-01-06T22:57:39.212Z,101167.44
2023-01-06T23:03:01.819Z,101170.67
2023-01-06T23:08:24.634Z,101178.55
2023-01-06T23:13:49.342Z,101174.95
2023-01-06T23:19:12.425Z,101179.41
2023-01-06T23:24:35.172Z,101183.73
2023-01-06T23:29:58.048Z,101181.88
2023-01-06T23:35:20.540Z,101179.15
2023-01-06T23:40:43.444Z,101178.16
2023-01-06T23:46:06.660Z,101184.36
2023-01-06T23:51:32.608Z,101178.98
2023-01-06T23:56:55.630Z,101189.48
